sensor_id;sensor_type;location;lat;lon;timestamp;temperature;humidity
7516;DHT22;3799;47.184;8.538;2022-07-29T00:00:44;19.60;99.90
7516;DHT22;3799;47.184;8.538;2022-07-29T00:03:13;19.70;99.90
7516;DHT22;3799;47.184;8.538;2022-07-29T00:05:40;19.70;99.90
7516;DHT22;3799;47.184;8.538;2022-07-29T00:08:07;19.80;99.90
7516;DHT22;3799;47.184;8.538;2022-07-29T00:10:33;19.80;99.90
7516;DHT22;3799;47.184;8.538;2022-07-29T00:12:58;19.80;99.90
7516;DHT22;3799;47.184;8.538;2022-07-29T00:15:24;19.80;99.90
7516;DHT22;3799;47.184;8.538;2022-07-29T00:17:50;19.80;99.90
7516;DHT22;3799;47.184;8.538;2022-07-29T00:20:16;19.70;99.90
7516;DHT22;3799;47.184;8.538;2022-07-29T00:22:44;19.60;99.90
7516;DHT22;3799;47.184;8.538;2022-07-29T00:25:12;19.60;99.90
7516;DHT22;3799;47.184;8.538;2022-07-29T00:27:38;19.60;99.90
7516;DHT22;3799;47.184;8.538;2022-07-29T00:30:05;19.50;99.90
7516;DHT22;3799;47.184;8.538;2022-07-29T00:32:31;19.40;99.90
7516;DHT22;3799;47.184;8.538;2022-07-29T00:34:57;19.30;99.90
7516;DHT22;3799;47.184;8.538;2022-07-29T00:37:44;19.30;99.90
7516;DHT22;3799;47.184;8.538;2022-07-29T00:40:10;19.30;99.90
7516;DHT22;3799;47.184;8.538;2022-07-29T00:42:47;19.30;99.90
7516;DHT22;3799;47.184;8.538;2022-07-29T00:45:13;19.20;99.90
7516;DHT22;3799;47.184;8.538;2022-07-29T00:47:39;19.20;99.90
7516;DHT22;3799;47.184;8.538;2022-07-29T00:50:06;19.20;99.90
7516;DHT22;3799;47.184;8.538;2022-07-29T00:52:36;19.30;99.90
7516;DHT22;3799;47.184;8.538;2022-07-29T00:55:08;19.30;99.90
7516;DHT22;3799;47.184;8.538;2022-07-29T00:57:35;19.40;99.90
7516;DHT22;3799;47.184;8.538;2022-07-29T01:00:06;19.40;99.90
7516;DHT22;3799;47.184;8.538;2022-07-29T01:02:32;19.40;99.90
7516;DHT22;3799;47.184;8.538;2022-07-29T01:04:58;19.40;99.90
7516;DHT22;3799;47.184;8.538;2022-07-29T01:07:27;19.40;99.90
7516;DHT22;3799;47.184;8.538;2022-07-29T01:09:55;19.40;99.90
7516;DHT22;3799;47.184;8.538;2022-07-29T01:12:28;19.40;99.90
7516;DHT22;3799;47.184;8.538;2022-07-29T01:14:59;19.40;99.90
7516;DHT22;3799;47.184;8.538;2022-07-29T01:27:37;19.10;99.90
7516;DHT22;3799;47.184;8.538;2022-07-29T01:30:04;19.10;99.90
7516;DHT22;3799;47.184;8.538;2022-07-29T01:32:33;19.10;99.90
7516;DHT22;3799;47.184;8.538;2022-07-29T01:40:18;19.20;99.90
7516;DHT22;3799;47.184;8.538;2022-07-29T01:42:50;19.20;99.90
7516;DHT22;3799;47.184;8.538;2022-07-29T01:45:21;19.20;99.90
7516;DHT22;3799;47.184;8.538;2022-07-29T01:50:52;19.30;99.90
7516;DHT22;3799;47.184;8.538;2022-07-29T01:53:29;19.20;99.90
7516;DHT22;3799;47.184;8.538;2022-07-29T01:55:58;19.10;99.90
7516;DHT22;3799;47.184;8.538;2022-07-29T01:58:26;19.00;99.90
7516;DHT22;3799;47.184;8.538;2022-07-29T02:00:54;18.90;99.90
7516;DHT22;3799;47.184;8.538;2022-07-29T02:03:21;18.90;99.90
7516;DHT22;3799;47.184;8.538;2022-07-29T02:05:49;19.00;99.90
7516;DHT22;3799;47.184;8.538;2022-07-29T02:08:17;19.00;99.90
7516;DHT22;3799;47.184;8.538;2022-07-29T02:10:47;19.10;99.90
7516;DHT22;3799;47.184;8.538;2022-07-29T02:13:14;19.10;99.90
7516;DHT22;3799;47.184;8.538;2022-07-29T02:15:42;19.20;99.90
7516;DHT22;3799;47.184;8.538;2022-07-29T02:18:13;19.20;99.90
7516;DHT22;3799;47.184;8.538;2022-07-29T02:20:42;19.20;99.90
7516;DHT22;3799;47.184;8.538;2022-07-29T02:23:10;19.20;99.90
7516;DHT22;3799;47.184;8.538;2022-07-29T02:25:37;19.10;99.90
7516;DHT22;3799;47.184;8.538;2022-07-29T02:28:05;19.10;99.90
7516;DHT22;3799;47.184;8.538;2022-07-29T02:30:32;19.00;99.90
7516;DHT22;3799;47.184;8.538;2022-07-29T02:32:59;19.00;99.90
7516;DHT22;3799;47.184;8.538;2022-07-29T02:35:25;18.90;99.90
7516;DHT22;3799;47.184;8.538;2022-07-29T02:37:52;18.80;99.90
7516;DHT22;3799;47.184;8.538;2022-07-29T02:40:38;18.80;99.90
7516;DHT22;3799;47.184;8.538;2022-07-29T02:43:06;18.80;99.90
7516;DHT22;3799;47.184;8.538;2022-07-29T02:45:33;18.80;99.90
7516;DHT22;3799;47.184;8.538;2022-07-29T02:48:00;18.70;99.90
7516;DHT22;3799;47.184;8.538;2022-07-29T02:50:31;18.70;99.90
7516;DHT22;3799;47.184;8.538;2022-07-29T02:53:07;18.70;99.90
7516;DHT22;3799;47.184;8.538;2022-07-29T02:55:37;18.60;99.90
7516;DHT22;3799;47.184;8.538;2022-07-29T02:58:12;18.50;99.90
7516;DHT22;3799;47.184;8.538;2022-07-29T03:00:40;18.40;99.90
7516;DHT22;3799;47.184;8.538;2022-07-29T03:03:13;18.30;99.90
7516;DHT22;3799;47.184;8.538;2022-07-29T03:05:40;18.20;99.90
7516;DHT22;3799;47.184;8.538;2022-07-29T03:08:09;18.20;99.90
7516;DHT22;3799;47.184;8.538;2022-07-29T03:10:37;18.10;99.90
7516;DHT22;3799;47.184;8.538;2022-07-29T03:13:05;18.10;99.90
7516;DHT22;3799;47.184;8.538;2022-07-29T03:15:31;18.10;99.90
7516;DHT22;3799;47.184;8.538;2022-07-29T03:17:58;18.20;99.90
7516;DHT22;3799;47.184;8.538;2022-07-29T03:20:24;18.30;99.90
7516;DHT22;3799;47.184;8.538;2022-07-29T03:22:51;18.40;99.90
7516;DHT22;3799;47.184;8.538;2022-07-29T03:25:20;18.50;99.90
7516;DHT22;3799;47.184;8.538;2022-07-29T03:27:47;18.60;99.90
7516;DHT22;3799;47.184;8.538;2022-07-29T03:30:13;18.70;99.90
7516;DHT22;3799;47.184;8.538;2022-07-29T03:32:40;18.70;99.90
7516;DHT22;3799;47.184;8.538;2022-07-29T03:35:06;18.80;99.90
7516;DHT22;3799;47.184;8.538;2022-07-29T03:37:32;18.90;99.90
7516;DHT22;3799;47.184;8.538;2022-07-29T03:40:00;19.00;99.90
7516;DHT22;3799;47.184;8.538;2022-07-29T03:42:31;19.10;99.90
7516;DHT22;3799;47.184;8.538;2022-07-29T03:45:01;19.20;99.90
7516;DHT22;3799;47.184;8.538;2022-07-29T03:47:28;19.20;99.90
7516;DHT22;3799;47.184;8.538;2022-07-29T03:50:06;19.30;99.90
7516;DHT22;3799;47.184;8.538;2022-07-29T03:52:34;19.30;99.90
7516;DHT22;3799;47.184;8.538;2022-07-29T03:55:01;19.30;99.90
7516;DHT22;3799;47.184;8.538;2022-07-29T03:57:28;19.40;99.90
7516;DHT22;3799;47.184;8.538;2022-07-29T03:59:56;19.40;99.90
7516;DHT22;3799;47.184;8.538;2022-07-29T04:02:22;19.40;99.90
7516;DHT22;3799;47.184;8.538;2022-07-29T04:04:48;19.40;99.90
7516;DHT22;3799;47.184;8.538;2022-07-29T04:07:15;19.40;99.90
7516;DHT22;3799;47.184;8.538;2022-07-29T04:09:41;19.40;99.90
7516;DHT22;3799;47.184;8.538;2022-07-29T04:12:07;19.50;99.90
7516;DHT22;3799;47.184;8.538;2022-07-29T04:14:34;19.50;99.90
7516;DHT22;3799;47.184;8.538;2022-07-29T04:17:02;19.60;99.90
7516;DHT22;3799;47.184;8.538;2022-07-29T04:19:28;19.60;99.90
7516;DHT22;3799;47.184;8.538;2022-07-29T04:21:54;19.60;99.90
7516;DHT22;3799;47.184;8.538;2022-07-29T04:24:20;19.50;99.90
7516;DHT22;3799;47.184;8.538;2022-07-29T04:26:46;19.50;99.90
7516;DHT22;3799;47.184;8.538;2022-07-29T04:29:12;19.60;99.90
7516;DHT22;3799;47.184;8.538;2022-07-29T04:31:43;19.70;99.90
7516;DHT22;3799;47.184;8.538;2022-07-29T04:34:09;19.60;99.90
7516;DHT22;3799;47.184;8.538;2022-07-29T04:36:35;19.70;99.90
7516;DHT22;3799;47.184;8.538;2022-07-29T04:39:01;19.70;99.90
7516;DHT22;3799;47.184;8.538;2022-07-29T04:41:27;19.70;99.90
7516;DHT22;3799;47.184;8.538;2022-07-29T04:43:53;19.70;99.90
7516;DHT22;3799;47.184;8.538;2022-07-29T04:46:19;19.70;99.90
7516;DHT22;3799;47.184;8.538;2022-07-29T04:48:48;19.70;99.90
7516;DHT22;3799;47.184;8.538;2022-07-29T04:51:14;19.80;99.90
7516;DHT22;3799;47.184;8.538;2022-07-29T04:53:40;19.80;99.90
7516;DHT22;3799;47.184;8.538;2022-07-29T04:56:06;19.90;99.90
7516;DHT22;3799;47.184;8.538;2022-07-29T04:58:34;20.00;99.90
7516;DHT22;3799;47.184;8.538;2022-07-29T05:01:00;20.00;99.90
7516;DHT22;3799;47.184;8.538;2022-07-29T05:03:26;20.10;99.90
7516;DHT22;3799;47.184;8.538;2022-07-29T05:05:51;20.10;99.90
7516;DHT22;3799;47.184;8.538;2022-07-29T05:08:17;20.10;99.90
7516;DHT22;3799;47.184;8.538;2022-07-29T05:10:46;20.10;99.90
7516;DHT22;3799;47.184;8.538;2022-07-29T05:13:15;20.10;99.90
7516;DHT22;3799;47.184;8.538;2022-07-29T05:15:42;20.20;99.90
7516;DHT22;3799;47.184;8.538;2022-07-29T05:18:08;20.40;99.90
7516;DHT22;3799;47.184;8.538;2022-07-29T05:20:34;20.60;99.90
7516;DHT22;3799;47.184;8.538;2022-07-29T05:23:00;20.80;99.90
7516;DHT22;3799;47.184;8.538;2022-07-29T05:25:28;21.00;99.90
7516;DHT22;3799;47.184;8.538;2022-07-29T05:27:54;21.10;99.90
7516;DHT22;3799;47.184;8.538;2022-07-29T05:30:20;21.20;99.90
7516;DHT22;3799;47.184;8.538;2022-07-29T05:32:48;21.40;99.90
7516;DHT22;3799;47.184;8.538;2022-07-29T05:35:14;21.50;99.90
7516;DHT22;3799;47.184;8.538;2022-07-29T05:37:41;21.60;99.90
7516;DHT22;3799;47.184;8.538;2022-07-29T05:40:07;21.70;99.90
7516;DHT22;3799;47.184;8.538;2022-07-29T05:42:34;21.70;99.90
7516;DHT22;3799;47.184;8.538;2022-07-29T05:45:00;21.80;99.90
7516;DHT22;3799;47.184;8.538;2022-07-29T05:47:26;21.80;99.90
7516;DHT22;3799;47.184;8.538;2022-07-29T05:49:52;21.90;99.90
7516;DHT22;3799;47.184;8.538;2022-07-29T05:52:20;22.00;99.90
7516;DHT22;3799;47.184;8.538;2022-07-29T05:54:45;22.00;99.90
7516;DHT22;3799;47.184;8.538;2022-07-29T05:57:19;22.10;99.90
7516;DHT22;3799;47.184;8.538;2022-07-29T05:59:45;22.20;99.90
7516;DHT22;3799;47.184;8.538;2022-07-29T06:02:11;22.30;99.90
7516;DHT22;3799;47.184;8.538;2022-07-29T06:04:37;22.30;99.90
7516;DHT22;3799;47.184;8.538;2022-07-29T06:07:03;22.20;99.90
7516;DHT22;3799;47.184;8.538;2022-07-29T06:09:29;22.20;99.90
7516;DHT22;3799;47.184;8.538;2022-07-29T06:11:55;22.20;99.90
7516;DHT22;3799;47.184;8.538;2022-07-29T06:14:21;22.20;99.90
7516;DHT22;3799;47.184;8.538;2022-07-29T06:16:47;22.20;99.90
7516;DHT22;3799;47.184;8.538;2022-07-29T06:19:13;22.10;99.90
7516;DHT22;3799;47.184;8.538;2022-07-29T06:21:45;22.00;99.90
7516;DHT22;3799;47.184;8.538;2022-07-29T06:24:11;21.90;99.90
7516;DHT22;3799;47.184;8.538;2022-07-29T06:26:38;21.90;99.90
7516;DHT22;3799;47.184;8.538;2022-07-29T06:29:13;21.90;99.90
7516;DHT22;3799;47.184;8.538;2022-07-29T06:31:39;21.90;99.90
7516;DHT22;3799;47.184;8.538;2022-07-29T06:34:05;21.90;99.90
7516;DHT22;3799;47.184;8.538;2022-07-29T06:36:34;21.80;99.90
7516;DHT22;3799;47.184;8.538;2022-07-29T06:39:05;21.80;99.90
7516;DHT22;3799;47.184;8.538;2022-07-29T06:41:31;21.60;99.90
7516;DHT22;3799;47.184;8.538;2022-07-29T06:43:56;21.50;99.90
7516;DHT22;3799;47.184;8.538;2022-07-29T06:46:22;21.40;99.90
7516;DHT22;3799;47.184;8.538;2022-07-29T06:48:48;21.30;99.90
7516;DHT22;3799;47.184;8.538;2022-07-29T06:51:14;21.30;99.90
7516;DHT22;3799;47.184;8.538;2022-07-29T06:53:42;21.30;99.90
7516;DHT22;3799;47.184;8.538;2022-07-29T06:56:07;21.40;99.90
7516;DHT22;3799;47.184;8.538;2022-07-29T06:58:38;21.40;99.90
7516;DHT22;3799;47.184;8.538;2022-07-29T07:01:05;21.30;99.90
7516;DHT22;3799;47.184;8.538;2022-07-29T07:03:31;21.20;99.90
7516;DHT22;3799;47.184;8.538;2022-07-29T07:06:00;21.20;99.90
7516;DHT22;3799;47.184;8.538;2022-07-29T07:08:26;21.10;99.90
7516;DHT22;3799;47.184;8.538;2022-07-29T07:10:52;21.10;99.90
7516;DHT22;3799;47.184;8.538;2022-07-29T07:13:19;21.00;99.90
7516;DHT22;3799;47.184;8.538;2022-07-29T07:15:45;21.10;99.90
7516;DHT22;3799;47.184;8.538;2022-07-29T07:18:13;21.10;99.90
7516;DHT22;3799;47.184;8.538;2022-07-29T07:20:39;21.20;99.90
7516;DHT22;3799;47.184;8.538;2022-07-29T07:23:05;21.30;99.90
7516;DHT22;3799;47.184;8.538;2022-07-29T07:25:32;21.30;99.90
7516;DHT22;3799;47.184;8.538;2022-07-29T07:27:58;21.30;99.90
7516;DHT22;3799;47.184;8.538;2022-07-29T07:30:24;21.30;99.90
7516;DHT22;3799;47.184;8.538;2022-07-29T07:32:53;21.30;99.90
7516;DHT22;3799;47.184;8.538;2022-07-29T07:35:19;21.40;99.90
7516;DHT22;3799;47.184;8.538;2022-07-29T07:37:45;21.50;99.90
7516;DHT22;3799;47.184;8.538;2022-07-29T07:40:11;21.60;99.90
7516;DHT22;3799;47.184;8.538;2022-07-29T07:42:38;21.60;99.90
7516;DHT22;3799;47.184;8.538;2022-07-29T07:45:04;21.60;99.90
7516;DHT22;3799;47.184;8.538;2022-07-29T07:47:31;21.60;99.90
7516;DHT22;3799;47.184;8.538;2022-07-29T07:49:57;21.70;99.90
7516;DHT22;3799;47.184;8.538;2022-07-29T07:52:23;21.70;99.90
7516;DHT22;3799;47.184;8.538;2022-07-29T07:54:49;21.70;99.90
7516;DHT22;3799;47.184;8.538;2022-07-29T07:57:15;21.60;99.90
7516;DHT22;3799;47.184;8.538;2022-07-29T07:59:41;21.40;99.90
7516;DHT22;3799;47.184;8.538;2022-07-29T08:02:07;21.30;99.90
7516;DHT22;3799;47.184;8.538;2022-07-29T08:04:33;21.30;99.90
7516;DHT22;3799;47.184;8.538;2022-07-29T08:06:59;21.40;99.90
7516;DHT22;3799;47.184;8.538;2022-07-29T08:09:27;21.60;99.90
7516;DHT22;3799;47.184;8.538;2022-07-29T08:11:53;21.70;99.90
7516;DHT22;3799;47.184;8.538;2022-07-29T08:14:19;21.80;99.90
7516;DHT22;3799;47.184;8.538;2022-07-29T08:16:45;21.90;99.90
7516;DHT22;3799;47.184;8.538;2022-07-29T08:19:11;22.10;99.90
7516;DHT22;3799;47.184;8.538;2022-07-29T08:21:37;22.30;99.90
7516;DHT22;3799;47.184;8.538;2022-07-29T08:24:03;22.40;99.90
7516;DHT22;3799;47.184;8.538;2022-07-29T08:26:48;22.40;99.90
7516;DHT22;3799;47.184;8.538;2022-07-29T08:29:14;22.40;99.90
7516;DHT22;3799;47.184;8.538;2022-07-29T08:31:40;22.50;99.90
7516;DHT22;3799;47.184;8.538;2022-07-29T08:34:06;22.60;99.90
7516;DHT22;3799;47.184;8.538;2022-07-29T08:36:32;22.70;99.90
7516;DHT22;3799;47.184;8.538;2022-07-29T08:38:58;22.70;99.90
7516;DHT22;3799;47.184;8.538;2022-07-29T08:41:24;22.80;99.90
7516;DHT22;3799;47.184;8.538;2022-07-29T08:43:50;22.80;99.90
7516;DHT22;3799;47.184;8.538;2022-07-29T08:46:17;22.90;99.90
7516;DHT22;3799;47.184;8.538;2022-07-29T08:48:43;22.90;99.90
7516;DHT22;3799;47.184;8.538;2022-07-29T08:51:09;23.00;99.90
7516;DHT22;3799;47.184;8.538;2022-07-29T08:53:40;23.20;99.90
7516;DHT22;3799;47.184;8.538;2022-07-29T08:56:06;23.50;99.90
7516;DHT22;3799;47.184;8.538;2022-07-29T08:58:33;23.60;99.90
7516;DHT22;3799;47.184;8.538;2022-07-29T09:01:01;23.80;99.90
7516;DHT22;3799;47.184;8.538;2022-07-29T09:03:32;23.90;99.90
7516;DHT22;3799;47.184;8.538;2022-07-29T09:06:03;24.00;99.90
7516;DHT22;3799;47.184;8.538;2022-07-29T09:08:33;24.00;99.90
7516;DHT22;3799;47.184;8.538;2022-07-29T09:11:00;24.00;99.90
7516;DHT22;3799;47.184;8.538;2022-07-29T09:13:26;24.00;99.90
7516;DHT22;3799;47.184;8.538;2022-07-29T09:15:52;24.00;99.90
7516;DHT22;3799;47.184;8.538;2022-07-29T09:20:59;24.20;99.90
7516;DHT22;3799;47.184;8.538;2022-07-29T09:26:31;24.20;99.90
7516;DHT22;3799;47.184;8.538;2022-07-29T09:28:58;24.30;99.90
7516;DHT22;3799;47.184;8.538;2022-07-29T09:31:36;24.40;99.90
7516;DHT22;3799;47.184;8.538;2022-07-29T09:34:03;24.60;99.90
7516;DHT22;3799;47.184;8.538;2022-07-29T09:36:29;24.60;99.90
7516;DHT22;3799;47.184;8.538;2022-07-29T09:38:59;24.60;99.90
7516;DHT22;3799;47.184;8.538;2022-07-29T09:41:27;24.70;99.90
7516;DHT22;3799;47.184;8.538;2022-07-29T09:43:59;24.80;99.90
7516;DHT22;3799;47.184;8.538;2022-07-29T09:46:27;24.90;99.90
7516;DHT22;3799;47.184;8.538;2022-07-29T09:49:12;24.90;99.90
7516;DHT22;3799;47.184;8.538;2022-07-29T09:51:38;25.00;99.90
7516;DHT22;3799;47.184;8.538;2022-07-29T09:54:40;25.10;99.90
7516;DHT22;3799;47.184;8.538;2022-07-29T09:57:08;25.10;99.90
7516;DHT22;3799;47.184;8.538;2022-07-29T09:59:38;25.10;99.90
7516;DHT22;3799;47.184;8.538;2022-07-29T10:02:14;25.00;99.90
7516;DHT22;3799;47.184;8.538;2022-07-29T10:04:41;25.00;99.90
7516;DHT22;3799;47.184;8.538;2022-07-29T10:07:07;25.10;99.90
7516;DHT22;3799;47.184;8.538;2022-07-29T10:09:33;25.10;99.90
7516;DHT22;3799;47.184;8.538;2022-07-29T10:12:13;25.20;99.90
7516;DHT22;3799;47.184;8.538;2022-07-29T10:14:40;25.30;99.90
7516;DHT22;3799;47.184;8.538;2022-07-29T10:17:07;25.40;99.90
7516;DHT22;3799;47.184;8.538;2022-07-29T10:19:34;25.40;99.90
7516;DHT22;3799;47.184;8.538;2022-07-29T10:22:02;25.60;99.80
7516;DHT22;3799;47.184;8.538;2022-07-29T10:24:30;25.80;99.50
7516;DHT22;3799;47.184;8.538;2022-07-29T10:26:57;26.00;99.10
7516;DHT22;3799;47.184;8.538;2022-07-29T10:29:24;26.20;98.90
7516;DHT22;3799;47.184;8.538;2022-07-29T10:31:57;26.40;98.30
7516;DHT22;3799;47.184;8.538;2022-07-29T10:40:13;27.00;95.30
7516;DHT22;3799;47.184;8.538;2022-07-29T10:43:09;27.20;94.10
7516;DHT22;3799;47.184;8.538;2022-07-29T10:45:40;27.50;92.10
7516;DHT22;3799;47.184;8.538;2022-07-29T10:48:29;27.60;90.10
7516;DHT22;3799;47.184;8.538;2022-07-29T10:51:15;27.50;85.50
7516;DHT22;3799;47.184;8.538;2022-07-29T10:54:12;27.40;84.20
7516;DHT22;3799;47.184;8.538;2022-07-29T10:57:29;27.30;86.10
7516;DHT22;3799;47.184;8.538;2022-07-29T11:05:04;26.90;78.70
7516;DHT22;3799;47.184;8.538;2022-07-29T11:07:32;26.70;78.40
7516;DHT22;3799;47.184;8.538;2022-07-29T11:15:12;26.20;82.20
7516;DHT22;3799;47.184;8.538;2022-07-29T11:26:19;25.70;88.50
7516;DHT22;3799;47.184;8.538;2022-07-29T11:31:45;25.40;91.10
7516;DHT22;3799;47.184;8.538;2022-07-29T11:34:24;25.20;91.00
7516;DHT22;3799;47.184;8.538;2022-07-29T11:39:39;25.20;91.30
7516;DHT22;3799;47.184;8.538;2022-07-29T11:44:59;25.10;91.40
7516;DHT22;3799;47.184;8.538;2022-07-29T11:47:38;25.10;91.40
7516;DHT22;3799;47.184;8.538;2022-07-29T11:50:07;25.10;91.20
7516;DHT22;3799;47.184;8.538;2022-07-29T11:55:10;25.00;90.60
7516;DHT22;3799;47.184;8.538;2022-07-29T11:57:36;25.00;91.30
7516;DHT22;3799;47.184;8.538;2022-07-29T12:00:05;24.90;90.90
7516;DHT22;3799;47.184;8.538;2022-07-29T12:02:43;24.80;90.50
7516;DHT22;3799;47.184;8.538;2022-07-29T12:05:09;24.80;90.30
7516;DHT22;3799;47.184;8.538;2022-07-29T12:07:39;24.90;88.20
7516;DHT22;3799;47.184;8.538;2022-07-29T12:10:06;24.90;84.90
7516;DHT22;3799;47.184;8.538;2022-07-29T12:12:33;24.90;84.50
7516;DHT22;3799;47.184;8.538;2022-07-29T12:15:16;24.80;85.00
7516;DHT22;3799;47.184;8.538;2022-07-29T12:17:47;24.90;89.60
7516;DHT22;3799;47.184;8.538;2022-07-29T12:20:13;24.80;91.10
7516;DHT22;3799;47.184;8.538;2022-07-29T12:22:40;24.90;92.00
7516;DHT22;3799;47.184;8.538;2022-07-29T12:27:35;24.80;92.00
7516;DHT22;3799;47.184;8.538;2022-07-29T12:30:05;24.90;91.50
7516;DHT22;3799;47.184;8.538;2022-07-29T12:32:36;24.80;90.80
7516;DHT22;3799;47.184;8.538;2022-07-29T12:35:14;24.80;91.00
7516;DHT22;3799;47.184;8.538;2022-07-29T12:37:42;24.80;88.50
7516;DHT22;3799;47.184;8.538;2022-07-29T12:40:09;24.80;85.30
7516;DHT22;3799;47.184;8.538;2022-07-29T12:42:36;24.70;82.60
7516;DHT22;3799;47.184;8.538;2022-07-29T12:45:03;24.70;79.50
7516;DHT22;3799;47.184;8.538;2022-07-29T12:47:30;24.60;78.30
7516;DHT22;3799;47.184;8.538;2022-07-29T12:50:11;24.50;77.90
7516;DHT22;3799;47.184;8.538;2022-07-29T12:52:37;24.50;78.00
7516;DHT22;3799;47.184;8.538;2022-07-29T12:55:06;24.30;79.00
7516;DHT22;3799;47.184;8.538;2022-07-29T12:57:43;24.20;81.40
7516;DHT22;3799;47.184;8.538;2022-07-29T13:00:13;24.00;85.50
7516;DHT22;3799;47.184;8.538;2022-07-29T13:02:40;23.80;88.30
7516;DHT22;3799;47.184;8.538;2022-07-29T13:05:12;23.60;90.60
7516;DHT22;3799;47.184;8.538;2022-07-29T13:07:38;23.50;91.60
7516;DHT22;3799;47.184;8.538;2022-07-29T13:10:18;23.30;92.40
7516;DHT22;3799;47.184;8.538;2022-07-29T13:13:07;23.30;94.00
7516;DHT22;3799;47.184;8.538;2022-07-29T13:15:36;23.20;94.50
7516;DHT22;3799;47.184;8.538;2022-07-29T13:18:02;23.10;95.30
7516;DHT22;3799;47.184;8.538;2022-07-29T13:20:29;23.10;95.90
7516;DHT22;3799;47.184;8.538;2022-07-29T13:22:58;23.10;96.70
7516;DHT22;3799;47.184;8.538;2022-07-29T13:25:30;23.00;97.30
7516;DHT22;3799;47.184;8.538;2022-07-29T13:27:58;23.00;97.90
7516;DHT22;3799;47.184;8.538;2022-07-29T13:30:24;22.90;98.60
7516;DHT22;3799;47.184;8.538;2022-07-29T13:32:51;22.90;98.50
7516;DHT22;3799;47.184;8.538;2022-07-29T13:35:18;22.90;98.60
7516;DHT22;3799;47.184;8.538;2022-07-29T13:37:45;22.90;98.60
7516;DHT22;3799;47.184;8.538;2022-07-29T13:40:11;22.80;99.70
7516;DHT22;3799;47.184;8.538;2022-07-29T13:42:37;22.70;99.90
7516;DHT22;3799;47.184;8.538;2022-07-29T13:45:03;22.70;99.90
7516;DHT22;3799;47.184;8.538;2022-07-29T13:47:29;22.70;99.90
7516;DHT22;3799;47.184;8.538;2022-07-29T13:49:55;22.70;99.90
7516;DHT22;3799;47.184;8.538;2022-07-29T13:52:21;22.60;99.90
7516;DHT22;3799;47.184;8.538;2022-07-29T13:54:47;22.60;99.90
7516;DHT22;3799;47.184;8.538;2022-07-29T13:57:14;22.60;99.90
7516;DHT22;3799;47.184;8.538;2022-07-29T13:59:43;22.60;99.90
7516;DHT22;3799;47.184;8.538;2022-07-29T14:02:10;22.60;99.90
7516;DHT22;3799;47.184;8.538;2022-07-29T14:04:36;22.60;99.90
7516;DHT22;3799;47.184;8.538;2022-07-29T14:07:06;22.60;99.90
7516;DHT22;3799;47.184;8.538;2022-07-29T14:09:31;22.60;99.90
7516;DHT22;3799;47.184;8.538;2022-07-29T14:11:57;22.60;99.90
7516;DHT22;3799;47.184;8.538;2022-07-29T14:14:23;22.70;99.90
7516;DHT22;3799;47.184;8.538;2022-07-29T14:16:49;22.70;99.90
7516;DHT22;3799;47.184;8.538;2022-07-29T14:19:15;22.80;99.90
7516;DHT22;3799;47.184;8.538;2022-07-29T14:21:40;22.70;99.90
7516;DHT22;3799;47.184;8.538;2022-07-29T14:24:06;22.70;99.90
7516;DHT22;3799;47.184;8.538;2022-07-29T14:26:32;22.60;99.90
7516;DHT22;3799;47.184;8.538;2022-07-29T14:28:58;22.50;99.90
7516;DHT22;3799;47.184;8.538;2022-07-29T14:31:24;22.40;99.90
7516;DHT22;3799;47.184;8.538;2022-07-29T14:33:50;22.30;99.90
7516;DHT22;3799;47.184;8.538;2022-07-29T14:36:15;22.10;99.90
7516;DHT22;3799;47.184;8.538;2022-07-29T14:38:41;22.00;99.90
7516;DHT22;3799;47.184;8.538;2022-07-29T14:41:07;21.90;99.90
7516;DHT22;3799;47.184;8.538;2022-07-29T14:43:34;21.80;99.90
7516;DHT22;3799;47.184;8.538;2022-07-29T14:46:01;21.70;99.90
7516;DHT22;3799;47.184;8.538;2022-07-29T14:48:38;21.60;99.90
7516;DHT22;3799;47.184;8.538;2022-07-29T14:51:04;21.50;99.90
7516;DHT22;3799;47.184;8.538;2022-07-29T14:53:29;21.30;99.90
7516;DHT22;3799;47.184;8.538;2022-07-29T14:55:55;21.20;99.90
7516;DHT22;3799;47.184;8.538;2022-07-29T14:58:21;20.90;99.90
7516;DHT22;3799;47.184;8.538;2022-07-29T15:00:49;20.70;99.90
7516;DHT22;3799;47.184;8.538;2022-07-29T15:03:15;20.60;99.90
7516;DHT22;3799;47.184;8.538;2022-07-29T15:05:41;20.40;99.90
7516;DHT22;3799;47.184;8.538;2022-07-29T15:08:06;20.30;99.90
7516;DHT22;3799;47.184;8.538;2022-07-29T15:10:34;20.10;99.90
7516;DHT22;3799;47.184;8.538;2022-07-29T15:12:59;20.00;99.90
7516;DHT22;3799;47.184;8.538;2022-07-29T15:15:25;19.80;99.90
7516;DHT22;3799;47.184;8.538;2022-07-29T15:17:51;19.60;99.90
7516;DHT22;3799;47.184;8.538;2022-07-29T15:20:17;19.50;99.90
7516;DHT22;3799;47.184;8.538;2022-07-29T15:22:43;19.40;99.90
7516;DHT22;3799;47.184;8.538;2022-07-29T15:25:08;19.40;99.90
7516;DHT22;3799;47.184;8.538;2022-07-29T15:27:35;19.30;99.90
7516;DHT22;3799;47.184;8.538;2022-07-29T15:30:00;19.30;99.90
7516;DHT22;3799;47.184;8.538;2022-07-29T15:32:26;19.10;99.90
7516;DHT22;3799;47.184;8.538;2022-07-29T15:34:52;19.10;99.90
7516;DHT22;3799;47.184;8.538;2022-07-29T15:37:17;19.00;99.90
7516;DHT22;3799;47.184;8.538;2022-07-29T15:39:43;18.90;99.90
7516;DHT22;3799;47.184;8.538;2022-07-29T15:42:09;18.80;99.90
7516;DHT22;3799;47.184;8.538;2022-07-29T15:44:34;18.80;99.90
7516;DHT22;3799;47.184;8.538;2022-07-29T15:47:00;18.90;99.90
7516;DHT22;3799;47.184;8.538;2022-07-29T15:49:39;18.90;99.90
7516;DHT22;3799;47.184;8.538;2022-07-29T15:52:07;19.00;99.90
7516;DHT22;3799;47.184;8.538;2022-07-29T15:54:35;19.00;99.90
7516;DHT22;3799;47.184;8.538;2022-07-29T15:57:02;19.00;99.90
7516;DHT22;3799;47.184;8.538;2022-07-29T15:59:28;19.00;99.90
7516;DHT22;3799;47.184;8.538;2022-07-29T16:01:54;19.00;99.90
7516;DHT22;3799;47.184;8.538;2022-07-29T16:04:20;19.00;99.90
7516;DHT22;3799;47.184;8.538;2022-07-29T16:06:49;19.00;99.90
7516;DHT22;3799;47.184;8.538;2022-07-29T16:09:16;19.00;99.90
7516;DHT22;3799;47.184;8.538;2022-07-29T16:11:47;19.00;99.90
7516;DHT22;3799;47.184;8.538;2022-07-29T16:14:18;19.10;99.90
7516;DHT22;3799;47.184;8.538;2022-07-29T16:16:44;19.10;99.90
7516;DHT22;3799;47.184;8.538;2022-07-29T16:19:10;19.20;99.90
7516;DHT22;3799;47.184;8.538;2022-07-29T16:21:37;19.20;99.90
7516;DHT22;3799;47.184;8.538;2022-07-29T16:24:04;19.30;99.90
7516;DHT22;3799;47.184;8.538;2022-07-29T16:26:42;19.40;99.90
7516;DHT22;3799;47.184;8.538;2022-07-29T16:29:15;19.40;99.90
7516;DHT22;3799;47.184;8.538;2022-07-29T16:31:42;19.50;99.90
7516;DHT22;3799;47.184;8.538;2022-07-29T16:34:08;19.50;99.90
7516;DHT22;3799;47.184;8.538;2022-07-29T16:36:34;19.50;99.90
7516;DHT22;3799;47.184;8.538;2022-07-29T16:38:59;19.60;99.90
7516;DHT22;3799;47.184;8.538;2022-07-29T16:41:25;19.50;99.90
7516;DHT22;3799;47.184;8.538;2022-07-29T16:43:51;19.60;99.90
7516;DHT22;3799;47.184;8.538;2022-07-29T16:46:17;19.60;99.90
7516;DHT22;3799;47.184;8.538;2022-07-29T16:48:42;19.60;99.90
7516;DHT22;3799;47.184;8.538;2022-07-29T16:51:08;19.60;99.90
7516;DHT22;3799;47.184;8.538;2022-07-29T16:53:34;19.70;99.90
7516;DHT22;3799;47.184;8.538;2022-07-29T16:56:00;19.70;99.90
7516;DHT22;3799;47.184;8.538;2022-07-29T16:58:26;19.70;99.90
7516;DHT22;3799;47.184;8.538;2022-07-29T17:00:52;19.70;99.90
7516;DHT22;3799;47.184;8.538;2022-07-29T17:03:17;19.70;99.90
7516;DHT22;3799;47.184;8.538;2022-07-29T17:05:43;19.70;99.90
7516;DHT22;3799;47.184;8.538;2022-07-29T17:08:09;19.80;99.90
7516;DHT22;3799;47.184;8.538;2022-07-29T17:10:35;19.90;99.90